createdAt,value
2019-05-22T00:00:59.138Z,13.40
2019-05-22T00:03:41.639Z,13.50
2019-05-22T00:06:12.502Z,13.40
2019-05-22T00:08:43.468Z,13.40
2019-05-22T00:11:13.838Z,13.40
2019-05-22T00:13:47.356Z,13.40
2019-05-22T00:16:17.994Z,13.40
2019-05-22T00:18:49.367Z,13.50
2019-05-22T00:21:20.819Z,13.50
2019-05-22T00:23:52.446Z,13.50
2019-05-22T00:26:22.861Z,13.50
2019-05-22T00:28:54.218Z,13.50
2019-05-22T00:31:25.963Z,13.50
2019-05-22T00:33:57.758Z,13.40
2019-05-22T00:36:28.598Z,13.40
2019-05-22T00:39:00.639Z,13.40
2019-05-22T00:41:32.649Z,13.30
2019-05-22T00:44:04.197Z,13.30
2019-05-22T00:46:34.110Z,13.30
2019-05-22T00:49:04.553Z,13.20
2019-05-22T00:51:54.091Z,13.20
2019-05-22T00:54:38.240Z,13.20
2019-05-22T00:57:26.197Z,13.20
2019-05-22T01:00:01.120Z,13.20
2019-05-22T01:02:33.019Z,13.20
2019-05-22T01:05:02.408Z,13.20
2019-05-22T01:07:42.380Z,13.20
2019-05-22T01:10:12.275Z,13.10
2019-05-22T01:12:44.092Z,13.10
2019-05-22T01:15:18.430Z,13.20
2019-05-22T01:17:49.522Z,13.20
2019-05-22T01:20:24.509Z,13.20
2019-05-22T01:22:57.645Z,13.20
2019-05-22T01:25:29.008Z,13.20
2019-05-22T01:27:59.475Z,13.20
2019-05-22T01:30:38.992Z,13.30
2019-05-22T01:33:16.492Z,13.40
2019-05-22T01:36:06.336Z,13.40
2019-05-22T01:38:39.428Z,13.40
2019-05-22T01:41:14.811Z,13.40
2019-05-22T01:43:46.130Z,13.40
2019-05-22T01:46:17.182Z,13.50
2019-05-22T01:48:48.445Z,13.40
2019-05-22T01:51:18.128Z,13.40
2019-05-22T01:53:47.530Z,13.40
2019-05-22T01:56:18.950Z,13.40
2019-05-22T01:58:49.828Z,13.40
2019-05-22T02:01:20.868Z,13.40
2019-05-22T02:03:54.226Z,13.40
2019-05-22T02:06:26.615Z,13.30
2019-05-22T02:09:14.249Z,13.30
2019-05-22T02:11:46.319Z,13.40
2019-05-22T02:14:18.171Z,13.30
2019-05-22T02:16:56.849Z,13.30
2019-05-22T02:19:20.515Z,13.30
2019-05-22T02:21:50.252Z,13.30
2019-05-22T02:24:19.696Z,13.40
2019-05-22T02:26:50.129Z,13.40
2019-05-22T02:29:22.982Z,13.40
2019-05-22T02:31:55.540Z,13.40
2019-05-22T02:34:25.068Z,13.40
2019-05-22T02:36:56.095Z,13.40
2019-05-22T02:39:29.417Z,13.50
2019-05-22T02:42:05.511Z,13.50
2019-05-22T02:44:36.538Z,13.50
2019-05-22T02:47:19.048Z,13.50
2019-05-22T02:49:41.157Z,13.50
2019-05-22T02:52:13.178Z,13.50
2019-05-22T02:54:42.925Z,13.50
2019-05-22T02:57:13.492Z,13.60
2019-05-22T02:59:44.903Z,13.50
2019-05-22T03:02:16.304Z,13.60
2019-05-22T03:05:01.569Z,13.60
2019-05-22T03:07:31.554Z,13.60
2019-05-22T03:10:03.409Z,13.60
2019-05-22T03:12:35.532Z,13.60
2019-05-22T03:15:08.972Z,13.50
2019-05-22T03:17:40.899Z,13.40
2019-05-22T03:20:13.991Z,13.30
2019-05-22T03:23:53.611Z,13.30
2019-05-22T03:26:24.744Z,13.30
2019-05-22T03:28:54.373Z,13.20
2019-05-22T03:31:25.384Z,13.10
2019-05-22T03:33:57.021Z,13.10
2019-05-22T03:36:28.113Z,13.10
2019-05-22T03:38:58.946Z,13.10
2019-05-22T03:41:28.428Z,13.00
2019-05-22T03:43:58.463Z,13.00
2019-05-22T03:46:47.880Z,13.00
2019-05-22T03:49:29.649Z,12.90
2019-05-22T03:51:53.515Z,12.90
2019-05-22T03:54:22.928Z,12.80
2019-05-22T03:56:54.051Z,12.80
2019-05-22T03:59:23.850Z,12.70
2019-05-22T04:01:54.814Z,12.60
2019-05-22T04:04:40.408Z,12.50
2019-05-22T04:07:14.070Z,12.40
2019-05-22T04:09:45.241Z,12.40
2019-05-22T04:12:15.411Z,12.40
2019-05-22T04:14:45.906Z,12.40
2019-05-22T04:17:16.552Z,12.40
2019-05-22T04:19:50.560Z,12.40
2019-05-22T04:22:18.275Z,12.40
2019-05-22T04:24:47.704Z,12.30
2019-05-22T04:27:17.736Z,12.30
2019-05-22T04:29:49.916Z,12.20
2019-05-22T04:32:31.749Z,12.20
2019-05-22T04:35:02.482Z,12.20
2019-05-22T04:37:34.360Z,12.20
2019-05-22T04:40:40.805Z,12.20
2019-05-22T04:43:10.678Z,12.20
2019-05-22T04:45:40.134Z,12.20
2019-05-22T04:48:10.281Z,12.20
2019-05-22T04:50:39.853Z,12.20
2019-05-22T04:53:09.248Z,12.20
2019-05-22T04:55:39.326Z,12.20
2019-05-22T04:58:10.689Z,12.10
2019-05-22T05:00:41.107Z,12.10
2019-05-22T05:03:11.155Z,12.10
2019-05-22T05:05:43.361Z,12.10
2019-05-22T05:08:15.170Z,12.10
2019-05-22T05:10:46.948Z,12.20
2019-05-22T05:13:17.498Z,12.20
2019-05-22T05:15:47.004Z,12.20
2019-05-22T05:18:16.854Z,12.20
2019-05-22T05:20:46.143Z,12.30
2019-05-22T05:23:15.852Z,12.30
2019-05-22T05:25:45.473Z,12.30
2019-05-22T05:28:16.286Z,12.40
2019-05-22T05:30:45.910Z,12.40
2019-05-22T05:33:15.419Z,12.40
2019-05-22T05:35:45.834Z,12.40
2019-05-22T05:38:15.679Z,12.40
2019-05-22T05:40:46.339Z,12.50
2019-05-22T05:43:19.256Z,12.50
2019-05-22T05:45:50.152Z,12.60
2019-05-22T05:48:22.568Z,12.70
2019-05-22T05:51:23.707Z,12.70
2019-05-22T05:53:59.603Z,12.70
2019-05-22T05:56:31.761Z,12.80
2019-05-22T05:59:03.035Z,12.90
2019-05-22T06:01:36.271Z,12.90
2019-05-22T06:04:06.141Z,13.00
2019-05-22T06:07:17.470Z,13.00
2019-05-22T06:10:16.402Z,13.00
2019-05-22T06:12:47.701Z,13.10
2019-05-22T06:15:17.056Z,13.00
2019-05-22T06:18:25.756Z,12.90
2019-05-22T06:21:03.649Z,12.80
2019-05-22T06:24:03.384Z,12.80
2019-05-22T06:26:57.608Z,12.80
2019-05-22T06:29:34.560Z,12.70
2019-05-22T06:32:58.787Z,12.70
2019-05-22T06:35:32.737Z,12.60
2019-05-22T06:38:20.452Z,12.60
2019-05-22T06:40:50.084Z,12.60
2019-05-22T06:44:01.436Z,12.60
2019-05-22T06:46:48.101Z,12.60
2019-05-22T06:49:47.003Z,12.60
2019-05-22T06:52:16.994Z,12.60
2019-05-22T06:54:46.572Z,12.60
2019-05-22T06:57:18.063Z,12.60
2019-05-22T06:59:49.096Z,12.50
2019-05-22T07:02:20.170Z,12.60
2019-05-22T07:04:52.008Z,12.60
2019-05-22T07:07:24.245Z,12.70
2019-05-22T07:09:53.585Z,12.70
2019-05-22T07:12:27.677Z,12.80
2019-05-22T07:15:50.463Z,12.90
2019-05-22T07:18:23.907Z,13.00
2019-05-22T07:20:54.514Z,13.10
2019-05-22T07:23:31.998Z,13.20
2019-05-22T07:26:02.152Z,13.20
2019-05-22T07:28:33.266Z,13.40
2019-05-22T07:31:02.883Z,13.60
2019-05-22T07:33:32.917Z,13.60
2019-05-22T07:36:09.861Z,13.70
2019-05-22T07:38:34.600Z,13.90
2019-05-22T07:41:05.935Z,13.70
2019-05-22T07:43:35.544Z,13.60
2019-05-22T07:46:05.039Z,13.50
2019-05-22T07:48:34.849Z,13.60
2019-05-22T07:51:05.903Z,13.70
2019-05-22T07:53:35.544Z,13.80
2019-05-22T07:56:10.186Z,13.90
2019-05-22T07:58:47.212Z,14.00
2019-05-22T08:01:25.276Z,14.00
2019-05-22T08:04:16.272Z,14.10
2019-05-22T08:06:53.135Z,14.00
2019-05-22T08:10:30.137Z,14.10
2019-05-22T08:13:53.344Z,14.10
2019-05-22T08:16:34.069Z,14.10
2019-05-22T08:19:06.570Z,14.10
2019-05-22T08:22:07.002Z,14.10
2019-05-22T08:24:31.869Z,14.10
2019-05-22T08:27:06.651Z,14.40
2019-05-22T08:29:39.985Z,14.60
2019-05-22T08:32:17.211Z,14.80
2019-05-22T08:34:49.451Z,15.00
2019-05-22T08:37:28.567Z,15.00
2019-05-22T08:40:02.867Z,14.90
2019-05-22T08:42:35.341Z,14.80
2019-05-22T08:45:16.207Z,14.70
2019-05-22T08:48:28.766Z,14.80
2019-05-22T08:51:06.033Z,14.70
2019-05-22T08:53:47.455Z,14.70
2019-05-22T08:56:32.751Z,14.90
2019-05-22T08:59:18.395Z,15.10
2019-05-22T09:01:36.501Z,15.20
2019-05-22T09:04:28.803Z,15.00
2019-05-22T09:07:28.151Z,14.70
2019-05-22T09:10:14.010Z,14.50
2019-05-22T09:12:44.628Z,14.30
2019-05-22T09:15:19.399Z,14.10
2019-05-22T09:17:50.806Z,14.10
2019-05-22T09:20:22.564Z,14.00
2019-05-22T09:22:55.147Z,13.90
2019-05-22T09:25:27.467Z,13.80
2019-05-22T09:27:57.770Z,13.80
2019-05-22T09:30:30.466Z,13.80
2019-05-22T09:33:00.838Z,13.70
2019-05-22T09:35:31.224Z,13.80
2019-05-22T09:38:00.732Z,13.90
2019-05-22T09:40:31.552Z,14.00
2019-05-22T09:43:01.601Z,14.10
2019-05-22T09:45:31.411Z,14.10
2019-05-22T09:48:01.326Z,14.00
2019-05-22T09:50:30.667Z,13.90
2019-05-22T09:53:03.598Z,14.00
2019-05-22T09:55:33.064Z,14.10
2019-05-22T09:58:05.766Z,14.30
2019-05-22T10:00:35.620Z,14.40
2019-05-22T10:03:05.765Z,14.40
2019-05-22T10:05:40.943Z,14.40
2019-05-22T10:08:10.490Z,14.50
2019-05-22T10:10:39.798Z,14.40
2019-05-22T10:13:09.832Z,14.40
2019-05-22T10:15:40.485Z,14.50
2019-05-22T10:18:11.019Z,14.70
2019-05-22T10:20:40.710Z,14.80
2019-05-22T10:23:15.619Z,14.80
2019-05-22T10:25:42.039Z,14.80
2019-05-22T10:28:11.772Z,15.00
2019-05-22T10:30:41.135Z,15.40
2019-05-22T10:33:10.731Z,15.70
2019-05-22T10:35:41.129Z,15.80
2019-05-22T10:38:10.880Z,16.00
2019-05-22T10:40:40.639Z,16.10
2019-05-22T10:43:10.075Z,16.20
2019-05-22T10:45:39.844Z,16.20
2019-05-22T10:48:09.510Z,16.30
2019-05-22T10:50:38.940Z,16.50
2019-05-22T10:53:12.057Z,16.70
2019-05-22T10:55:41.811Z,16.90
2019-05-22T10:58:11.299Z,16.90
2019-05-22T11:00:42.236Z,17.00
2019-05-22T11:03:13.971Z,16.90
2019-05-22T11:05:44.820Z,16.80
2019-05-22T11:08:15.699Z,16.60
2019-05-22T11:10:45.740Z,16.30
2019-05-22T11:13:16.259Z,16.10
2019-05-22T11:15:45.776Z,15.80
2019-05-22T11:18:15.279Z,15.90
2019-05-22T11:20:45.197Z,15.90
2019-05-22T11:23:15.741Z,16.00
2019-05-22T11:25:45.194Z,16.00
2019-05-22T11:28:14.624Z,16.00
2019-05-22T11:30:43.987Z,16.00
2019-05-22T11:33:13.340Z,16.10
2019-05-22T11:35:44.219Z,16.10
2019-05-22T11:38:14.994Z,16.30
2019-05-22T11:40:46.991Z,16.30
2019-05-22T11:43:17.405Z,16.30
2019-05-22T11:45:46.975Z,16.70
2019-05-22T11:48:16.475Z,17.00
2019-05-22T11:50:47.068Z,17.30
2019-05-22T11:53:17.110Z,17.50
2019-05-22T11:55:46.664Z,17.70
2019-05-22T11:58:16.888Z,17.80
2019-05-22T12:00:47.297Z,17.90
2019-05-22T12:03:18.455Z,17.90
2019-05-22T12:05:48.519Z,18.10
2019-05-22T12:08:18.971Z,18.20
2019-05-22T12:10:48.867Z,18.10
2019-05-22T12:13:23.237Z,17.90
2019-05-22T12:15:53.542Z,17.50
2019-05-22T12:18:22.930Z,17.20
2019-05-22T12:20:55.248Z,16.90
2019-05-22T12:23:24.814Z,16.80
2019-05-22T12:26:03.240Z,16.80
2019-05-22T12:28:33.778Z,16.90
2019-05-22T12:31:15.913Z,16.90
2019-05-22T12:33:45.328Z,16.90
2019-05-22T12:36:17.102Z,17.10
2019-05-22T12:38:46.906Z,17.30
2019-05-22T12:41:19.323Z,17.30
2019-05-22T12:43:48.887Z,17.30
2019-05-22T12:46:19.691Z,17.30
2019-05-22T12:48:52.688Z,17.40
2019-05-22T12:51:22.581Z,17.30
2019-05-22T12:53:53.471Z,17.10
2019-05-22T12:56:23.389Z,16.70
2019-05-22T12:58:55.753Z,16.40
2019-05-22T13:01:29.055Z,16.20
2019-05-22T13:03:59.537Z,16.30
2019-05-22T13:06:29.897Z,16.10
2019-05-22T13:09:02.227Z,16.10
2019-05-22T13:11:32.324Z,16.10
2019-05-22T13:14:01.721Z,16.00
2019-05-22T13:16:31.971Z,16.10
2019-05-22T13:19:01.725Z,16.10
2019-05-22T13:21:35.174Z,16.20
2019-05-22T13:24:15.888Z,16.10
2019-05-22T13:26:47.333Z,16.10
2019-05-22T13:29:18.099Z,16.00
2019-05-22T13:31:50.171Z,15.90
2019-05-22T13:34:21.755Z,15.90
2019-05-22T13:36:56.673Z,15.80
2019-05-22T13:39:25.775Z,15.80
2019-05-22T13:41:55.510Z,15.60
2019-05-22T13:44:25.456Z,15.60
2019-05-22T13:46:55.385Z,15.50
2019-05-22T13:49:25.534Z,15.40
2019-05-22T13:51:54.905Z,15.40
2019-05-22T13:54:26.494Z,15.30
2019-05-22T13:56:57.889Z,15.30
2019-05-22T13:59:27.514Z,15.30
2019-05-22T14:01:57.122Z,15.10
2019-05-22T14:04:26.651Z,15.00
2019-05-22T14:06:57.838Z,14.80
2019-05-22T14:09:28.763Z,14.60
2019-05-22T14:11:58.497Z,14.40
2019-05-22T14:14:27.888Z,14.40
2019-05-22T14:16:59.541Z,14.30
2019-05-22T14:19:29.137Z,14.30
2019-05-22T14:21:58.749Z,14.30
2019-05-22T14:24:28.141Z,14.30
2019-05-22T14:26:57.605Z,14.30
2019-05-22T14:29:26.954Z,14.30
2019-05-22T14:31:58.499Z,14.40
2019-05-22T14:34:28.176Z,14.40
2019-05-22T14:36:58.199Z,14.40
2019-05-22T14:39:28.232Z,14.50
2019-05-22T14:41:57.821Z,14.60
2019-05-22T14:44:27.398Z,14.50
2019-05-22T14:47:10.656Z,14.40
2019-05-22T14:49:28.069Z,14.40
2019-05-22T14:51:57.822Z,14.40
2019-05-22T14:54:27.850Z,14.30
2019-05-22T14:56:57.186Z,14.40
2019-05-22T14:59:27.499Z,14.40
2019-05-22T15:01:58.368Z,14.30
2019-05-22T15:04:30.057Z,14.30
2019-05-22T15:07:02.313Z,14.30
2019-05-22T15:09:32.099Z,14.20
2019-05-22T15:12:06.074Z,14.10
2019-05-22T15:14:36.202Z,14.10
2019-05-22T15:17:07.400Z,14.10
2019-05-22T15:19:37.475Z,14.00
2019-05-22T15:22:07.371Z,14.00
2019-05-22T15:24:36.691Z,14.00
2019-05-22T15:27:07.915Z,14.00
2019-05-22T15:29:38.432Z,14.00
2019-05-22T15:32:10.656Z,14.00
2019-05-22T15:34:41.196Z,14.00
2019-05-22T15:37:24.954Z,14.00
2019-05-22T15:39:58.009Z,14.10
2019-05-22T15:42:55.523Z,14.10
2019-05-22T15:45:27.334Z,14.10
2019-05-22T15:47:58.594Z,14.10
2019-05-22T15:50:31.911Z,14.10
2019-05-22T15:53:07.079Z,14.20
2019-05-22T15:55:39.055Z,14.20
2019-05-22T15:58:09.723Z,14.10
2019-05-22T16:00:40.248Z,14.10
2019-05-22T16:03:11.829Z,13.90
2019-05-22T16:05:43.561Z,13.80
2019-05-22T16:08:14.875Z,13.70
2019-05-22T16:10:46.522Z,13.60
2019-05-22T16:13:19.267Z,13.50
2019-05-22T16:15:51.900Z,13.40
2019-05-22T16:18:24.388Z,13.40
2019-05-22T16:20:57.363Z,13.30
2019-05-22T16:23:30.768Z,13.20
2019-05-22T16:26:01.880Z,13.20
2019-05-22T16:28:36.117Z,13.10
2019-05-22T16:31:10.530Z,13.10
2019-05-22T16:33:41.646Z,13.00
2019-05-22T16:36:14.455Z,13.00
2019-05-22T16:38:44.384Z,12.90
2019-05-22T16:41:14.858Z,12.90
2019-05-22T16:43:49.291Z,12.90
2019-05-22T16:46:19.504Z,12.90
2019-05-22T16:48:49.947Z,12.90
2019-05-22T16:51:21.615Z,12.80
2019-05-22T16:53:53.996Z,12.80
2019-05-22T16:56:24.838Z,12.90
2019-05-22T16:58:55.807Z,12.80
2019-05-22T17:01:26.460Z,12.80
2019-05-22T17:04:02.837Z,12.80
2019-05-22T17:06:33.391Z,12.80
2019-05-22T17:09:08.217Z,12.80
2019-05-22T17:11:38.350Z,12.80
2019-05-22T17:14:08.911Z,12.80
2019-05-22T17:16:41.234Z,12.80
2019-05-22T17:19:26.469Z,12.80
2019-05-22T17:21:45.520Z,12.80
2019-05-22T17:24:17.316Z,12.80
2019-05-22T17:26:48.035Z,12.80
2019-05-22T17:29:18.151Z,12.80
2019-05-22T17:31:47.994Z,12.80
2019-05-22T17:34:35.396Z,12.80
2019-05-22T17:37:16.375Z,12.80
2019-05-22T17:39:48.927Z,12.90
2019-05-22T17:42:23.454Z,12.90
2019-05-22T17:44:54.151Z,12.90
2019-05-22T17:47:26.801Z,13.00
2019-05-22T17:49:56.946Z,13.00
2019-05-22T17:52:27.809Z,13.00
2019-05-22T17:54:57.561Z,13.00
2019-05-22T17:57:27.347Z,13.00
2019-05-22T18:00:00.704Z,13.00
2019-05-22T18:02:49.506Z,13.00
2019-05-22T18:05:24.819Z,13.00
2019-05-22T18:08:41.517Z,12.90
2019-05-22T18:11:20.901Z,12.90
2019-05-22T18:14:11.499Z,12.90
2019-05-22T18:16:45.854Z,12.90
2019-05-22T18:20:01.115Z,12.80
2019-05-22T18:22:36.334Z,12.80
2019-05-22T18:25:10.835Z,12.80
2019-05-22T18:27:41.537Z,12.70
2019-05-22T18:30:14.288Z,12.70
2019-05-22T18:32:44.114Z,12.60
2019-05-22T18:35:21.462Z,12.60
2019-05-22T18:37:53.927Z,12.60
2019-05-22T18:40:26.025Z,12.60
2019-05-22T18:42:55.587Z,12.60
2019-05-22T18:45:25.389Z,12.60
2019-05-22T18:47:57.952Z,12.60
2019-05-22T18:50:46.382Z,12.60
2019-05-22T18:53:20.587Z,12.60
2019-05-22T18:55:50.451Z,12.60
2019-05-22T18:58:23.835Z,12.60
2019-05-22T19:00:54.245Z,12.60
2019-05-22T19:03:31.087Z,12.60
2019-05-22T19:06:02.610Z,12.60
2019-05-22T19:08:36.831Z,12.60
2019-05-22T19:11:10.581Z,12.50
2019-05-22T19:13:49.190Z,12.50
2019-05-22T19:16:27.295Z,12.60
2019-05-22T19:19:00.730Z,12.60
2019-05-22T19:21:41.463Z,12.60
2019-05-22T19:24:27.112Z,12.60
2019-05-22T19:27:08.097Z,12.60
2019-05-22T19:29:42.390Z,12.60
2019-05-22T19:32:23.100Z,12.60
2019-05-22T19:35:02.527Z,12.60
2019-05-22T19:37:36.376Z,12.70
2019-05-22T19:40:17.674Z,12.60
2019-05-22T19:43:05.632Z,12.60
2019-05-22T19:45:56.039Z,12.60
2019-05-22T19:48:39.727Z,12.60
2019-05-22T19:51:23.502Z,12.60
2019-05-22T19:54:14.038Z,12.60
2019-05-22T19:56:44.954Z,12.60
2019-05-22T19:59:15.038Z,12.50
2019-05-22T20:01:45.649Z,12.50
2019-05-22T20:04:15.379Z,12.50
2019-05-22T20:06:47.203Z,12.50
2019-05-22T20:09:21.073Z,12.50
2019-05-22T20:11:50.970Z,12.60
2019-05-22T20:14:22.427Z,12.60
2019-05-22T20:16:55.616Z,12.60
2019-05-22T20:19:30.751Z,12.60
2019-05-22T20:22:01.027Z,12.60
2019-05-22T20:24:30.641Z,12.60
2019-05-22T20:27:00.721Z,12.60
2019-05-22T20:29:30.359Z,12.60
2019-05-22T20:31:59.739Z,12.60
2019-05-22T20:34:29.664Z,12.60
2019-05-22T20:36:59.484Z,12.60
2019-05-22T20:39:30.983Z,12.60
2019-05-22T20:42:00.729Z,12.60
2019-05-22T20:44:30.869Z,12.60
2019-05-22T20:47:01.596Z,12.60
2019-05-22T20:49:35.980Z,12.60
2019-05-22T20:52:10.744Z,12.60
2019-05-22T20:54:40.942Z,12.60
2019-05-22T20:57:12.931Z,12.50
2019-05-22T20:59:43.971Z,12.50
2019-05-22T21:02:14.294Z,12.50
2019-05-22T21:04:45.785Z,12.50
2019-05-22T21:07:18.066Z,12.50
2019-05-22T21:09:48.118Z,12.50
2019-05-22T21:12:19.308Z,12.50
2019-05-22T21:14:49.834Z,12.50
2019-05-22T21:17:20.064Z,12.50
2019-05-22T21:19:49.603Z,12.50
2019-05-22T21:22:23.232Z,12.40
2019-05-22T21:24:53.253Z,12.50
2019-05-22T21:27:22.555Z,12.50
2019-05-22T21:29:52.671Z,12.40
2019-05-22T21:32:23.615Z,12.50
2019-05-22T21:34:54.364Z,12.50
2019-05-22T21:37:24.759Z,12.50
2019-05-22T21:39:54.619Z,12.50
2019-05-22T21:42:24.935Z,12.40
2019-05-22T21:44:55.461Z,12.40
2019-05-22T21:47:26.475Z,12.40
2019-05-22T21:49:57.646Z,12.40
2019-05-22T21:52:42.638Z,12.40
2019-05-22T21:55:14.092Z,12.40
2019-05-22T21:57:44.520Z,12.30
2019-05-22T22:00:19.418Z,12.30
2019-05-22T22:02:49.900Z,12.30
2019-05-22T22:05:20.059Z,12.30
2019-05-22T22:07:50.384Z,12.30
2019-05-22T22:10:20.308Z,12.30
2019-05-22T22:12:54.254Z,12.30
2019-05-22T22:15:24.896Z,12.30
2019-05-22T22:17:55.064Z,12.30
2019-05-22T22:20:25.507Z,12.30
2019-05-22T22:22:55.377Z,12.20
2019-05-22T22:25:25.494Z,12.30
2019-05-22T22:27:55.431Z,12.30
2019-05-22T22:30:33.035Z,12.20
2019-05-22T22:33:07.874Z,12.20
2019-05-22T22:35:37.450Z,12.20
2019-05-22T22:38:09.732Z,12.20
2019-05-22T22:40:40.718Z,12.20
2019-05-22T22:43:20.605Z,12.20
2019-05-22T22:46:02.111Z,12.20
2019-05-22T22:48:33.591Z,12.20
2019-05-22T22:51:07.156Z,12.20
2019-05-22T22:53:37.783Z,12.20
2019-05-22T22:56:09.197Z,12.10
2019-05-22T22:58:41.106Z,12.20
2019-05-22T23:01:15.857Z,12.20
2019-05-22T23:03:48.993Z,12.20
2019-05-22T23:06:20.832Z,12.20
2019-05-22T23:08:50.541Z,12.20
2019-05-22T23:11:21.340Z,12.10
2019-05-22T23:13:52.774Z,12.10
2019-05-22T23:16:23.593Z,12.10
2019-05-22T23:19:32.073Z,12.10
2019-05-22T23:22:01.353Z,12.10
2019-05-22T23:24:32.952Z,12.10
2019-05-22T23:27:02.692Z,12.10
2019-05-22T23:29:33.441Z,12.10
2019-05-22T23:32:04.002Z,12.10
2019-05-22T23:34:35.626Z,12.10
2019-05-22T23:37:07.074Z,12.00
2019-05-22T23:39:39.351Z,12.10
2019-05-22T23:42:14.445Z,12.10
2019-05-22T23:44:44.877Z,12.00
2019-05-22T23:47:14.667Z,12.00
2019-05-22T23:49:45.022Z,12.00
2019-05-22T23:52:18.579Z,12.00
2019-05-22T23:54:51.334Z,12.00
2019-05-22T23:57:22.579Z,12.00
